Time;durP1;ratioP1;P1;durP2;ratioP2;P2;SDS_P1;SDS_P2;PMS_P1;PMS_P2;Temp;Humidity;BMP_temperature;BMP_pressure;BME280_temperature;BME280_humidity;BME280_pressure;Samples;Min_cycle;Max_cycle;Signal;HPM_P1;HPM_P2
2023/09/30 00:01:18;;;;;;;11.40;2.00;;;11.90;99.90;;;;;;4985493;28;20046;-35
2023/09/30 00:03:45;;;;;;;6.97;2.08;;;11.90;99.90;;;;;;4983617;28;20050;-35
2023/09/30 00:06:10;;;;;;;10.10;2.15;;;11.90;99.90;;;;;;4988944;28;20054;-35
2023/09/30 00:08:39;;;;;;;8.07;1.60;;;11.90;99.90;;;;;;4986417;28;20064;-35
2023/09/30 00:11:05;;;;;;;7.18;1.88;;;11.90;99.90;;;;;;4980267;28;20050;-35
2023/09/30 00:13:31;;;;;;;6.43;1.92;;;11.90;99.90;;;;;;4978544;28;20065;-35
2023/09/30 00:15:57;;;;;;;6.03;2.17;;;11.90;99.90;;;;;;4984984;28;20069;-35
2023/09/30 00:18:23;;;;;;;9.10;2.10;;;11.90;99.90;;;;;;4983212;28;20058;-35
2023/09/30 00:20:49;;;;;;;6.13;1.75;;;11.90;99.90;;;;;;4987935;28;20564;-35
2023/09/30 00:23:15;;;;;;;7.90;1.88;;;11.90;99.90;;;;;;4987512;28;20058;-35
2023/09/30 00:25:41;;;;;;;8.95;2.40;;;11.90;99.90;;;;;;4980933;28;20523;-35
2023/09/30 00:28:07;;;;;;;9.80;3.03;;;11.90;99.90;;;;;;4974579;28;20055;-36
2023/09/30 00:30:33;;;;;;;8.10;2.30;;;11.90;99.90;;;;;;4993795;28;20053;-35
2023/09/30 00:33:00;;;;;;;9.98;1.88;;;11.80;99.90;;;;;;4979975;28;20097;-35
2023/09/30 00:35:25;;;;;;;7.10;1.75;;;11.80;99.90;;;;;;4976043;28;20105;-35
2023/09/30 00:37:51;;;;;;;8.90;2.33;;;11.80;99.90;;;;;;4985362;28;20054;-36
2023/09/30 00:40:17;;;;;;;7.63;1.92;;;11.80;99.90;;;;;;4983567;28;20116;-35
2023/09/30 00:42:42;;;;;;;11.38;2.30;;;11.80;99.90;;;;;;5003917;28;20415;-35
2023/09/30 00:45:12;;;;;;;6.53;2.28;;;11.80;99.90;;;;;;4989154;28;20074;-35
2023/09/30 00:47:37;;;;;;;7.95;2.30;;;11.80;99.90;;;;;;4972887;28;20046;-35
2023/09/30 00:50:08;;;;;;;6.32;2.10;;;11.80;99.90;;;;;;4986342;28;20421;-34
2023/09/30 00:52:36;;;;;;;8.02;2.20;;;11.80;99.90;;;;;;5003716;28;20137;-34
2023/09/30 00:55:02;;;;;;;6.95;2.33;;;11.80;99.90;;;;;;4986821;28;20061;-35
2023/09/30 00:57:30;;;;;;;5.18;2.20;;;11.80;99.90;;;;;;4987083;28;20051;-34
2023/09/30 00:59:57;;;;;;;8.43;2.38;;;11.70;99.90;;;;;;4992270;28;20548;-35
2023/09/30 01:02:23;;;;;;;6.15;1.88;;;11.70;99.90;;;;;;4990016;28;20407;-38
2023/09/30 01:04:49;;;;;;;7.03;1.92;;;11.70;99.90;;;;;;4987040;28;20065;-35
2023/09/30 01:07:15;;;;;;;8.77;2.58;;;11.70;99.90;;;;;;4987012;28;20109;-35
2023/09/30 01:09:41;;;;;;;5.75;1.70;;;11.70;99.90;;;;;;4986579;28;20543;-35
2023/09/30 01:12:08;;;;;;;5.32;1.92;;;11.80;99.90;;;;;;4990163;28;20145;-36
2023/09/30 01:14:35;;;;;;;9.50;2.08;;;11.80;99.90;;;;;;4991359;28;20047;-33
2023/09/30 01:17:01;;;;;;;4.90;1.63;;;11.80;99.90;;;;;;4989138;28;20061;-33
2023/09/30 01:19:28;;;;;;;8.02;2.00;;;11.80;99.90;;;;;;4989058;28;20459;-36
2023/09/30 01:22:02;;;;;;;7.10;1.73;;;11.80;99.90;;;;;;4990136;28;20096;-34
2023/09/30 01:24:28;;;;;;;8.40;1.98;;;11.70;99.90;;;;;;4985927;28;20050;-34
2023/09/30 01:26:54;;;;;;;4.80;1.80;;;11.70;99.90;;;;;;4987779;28;20046;-34
2023/09/30 01:29:21;;;;;;;8.00;1.83;;;11.70;99.90;;;;;;4992984;28;20050;-34
2023/09/30 01:31:47;;;;;;;9.55;1.77;;;11.70;99.90;;;;;;4988829;28;20054;-34
2023/09/30 01:34:15;;;;;;;9.20;2.15;;;11.70;99.90;;;;;;4987923;28;20416;-33
2023/09/30 01:36:44;;;;;;;7.47;1.80;;;11.70;99.90;;;;;;4984283;28;20050;-34
2023/09/30 01:39:10;;;;;;;7.65;1.70;;;11.70;99.90;;;;;;4967927;28;20609;-34
2023/09/30 01:41:40;;;;;;;7.22;1.85;;;11.70;99.90;;;;;;4984437;28;20499;-34
2023/09/30 01:44:07;;;;;;;8.77;1.95;;;11.70;99.90;;;;;;4985760;28;20054;-33
2023/09/30 01:46:33;;;;;;;6.15;2.10;;;11.70;99.90;;;;;;4987357;28;20057;-33
2023/09/30 01:48:59;;;;;;;6.15;1.90;;;11.70;99.90;;;;;;4984653;28;20046;-34
2023/09/30 01:51:24;;;;;;;5.40;1.80;;;11.70;99.90;;;;;;4983232;28;20050;-34
2023/09/30 01:53:50;;;;;;;5.53;1.77;;;11.70;99.90;;;;;;4985949;28;20054;-34
2023/09/30 01:56:16;;;;;;;6.80;1.90;;;11.60;99.90;;;;;;4989194;28;20411;-34
2023/09/30 01:58:42;;;;;;;8.43;1.83;;;11.60;99.90;;;;;;4988257;28;20042;-34
2023/09/30 02:01:08;;;;;;;6.32;2.25;;;11.60;99.90;;;;;;4984707;28;20053;-34
2023/09/30 02:03:34;;;;;;;7.82;2.10;;;11.60;99.90;;;;;;4989653;28;20042;-34
2023/09/30 02:06:00;;;;;;;8.25;2.03;;;11.60;99.90;;;;;;4988086;28;20062;-34
2023/09/30 02:08:26;;;;;;;7.63;3.13;;;11.50;99.90;;;;;;4985974;28;20054;-33
2023/09/30 02:10:52;;;;;;;9.02;2.22;;;11.50;99.90;;;;;;4983905;28;20057;-34
2023/09/30 02:13:18;;;;;;;7.13;2.05;;;11.50;99.90;;;;;;4987052;28;20090;-34
2023/09/30 02:15:43;;;;;;;5.75;1.90;;;11.50;99.90;;;;;;4986372;28;20509;-35
2023/09/30 02:18:10;;;;;;;9.07;2.08;;;11.50;99.90;;;;;;4986370;28;20415;-34
2023/09/30 02:20:39;;;;;;;8.02;2.10;;;11.50;99.90;;;;;;4989023;28;20042;-34
2023/09/30 02:23:06;;;;;;;6.05;2.05;;;11.50;99.90;;;;;;4987980;28;20548;-34
2023/09/30 02:25:33;;;;;;;11.68;2.15;;;11.50;99.90;;;;;;4983893;28;20062;-34
2023/09/30 02:27:59;;;;;;;9.48;2.22;;;11.50;99.90;;;;;;4989788;28;20062;-34
2023/09/30 02:30:24;;;;;;;12.48;2.60;;;11.50;99.90;;;;;;4991494;28;20419;-34
2023/09/30 02:32:50;;;;;;;11.02;2.97;;;11.50;99.90;;;;;;4980553;28;22073;-34
2023/09/30 02:35:16;;;;;;;11.68;4.35;;;11.50;99.90;;;;;;4983556;28;20054;-33
2023/09/30 02:37:41;;;;;;;6.90;2.13;;;11.40;99.90;;;;;;4985386;28;20403;-33
2023/09/30 02:40:10;;;;;;;9.93;2.50;;;11.50;99.90;;;;;;4988463;28;20058;-33
2023/09/30 02:42:40;;;;;;;8.77;2.72;;;11.40;99.90;;;;;;4986867;28;20050;-34
2023/09/30 02:45:07;;;;;;;8.90;2.50;;;11.40;99.90;;;;;;4984806;28;20069;-34
2023/09/30 02:47:34;;;;;;;13.57;3.13;;;11.40;99.90;;;;;;4968350;28;20424;-34
2023/09/30 02:50:01;;;;;;;8.32;2.63;;;11.40;99.90;;;;;;4988143;28;20053;-35
2023/09/30 02:52:28;;;;;;;10.38;2.83;;;11.40;99.90;;;;;;4984587;28;20501;-35
2023/09/30 02:54:54;;;;;;;10.10;2.78;;;11.40;99.90;;;;;;4969042;28;20054;-59
2023/09/30 02:57:20;;;;;;;7.95;2.33;;;11.40;99.90;;;;;;4986529;28;20065;-34
2023/09/30 02:59:47;;;;;;;7.25;2.78;;;11.40;99.90;;;;;;4986139;28;20058;-34
2023/09/30 03:02:13;;;;;;;8.18;2.60;;;11.40;99.90;;;;;;4986066;28;20515;-34
2023/09/30 03:04:38;;;;;;;9.38;3.05;;;11.40;99.90;;;;;;4983098;28;20046;-34
2023/09/30 03:07:05;;;;;;;9.95;2.90;;;11.40;99.90;;;;;;4987060;28;20389;-35
2023/09/30 03:09:31;;;;;;;9.77;2.78;;;11.40;99.90;;;;;;4984354;28;20133;-34
2023/09/30 03:11:59;;;;;;;7.13;2.95;;;11.40;99.90;;;;;;4983278;28;20069;-34
2023/09/30 03:14:25;;;;;;;10.73;3.55;;;11.40;99.90;;;;;;4978407;28;20066;-34
2023/09/30 03:16:50;;;;;;;10.15;3.22;;;11.40;99.90;;;;;;4977700;28;20046;-34
2023/09/30 03:19:16;;;;;;;9.57;2.72;;;11.30;99.90;;;;;;4983691;28;20437;-34
2023/09/30 03:21:42;;;;;;;8.48;3.17;;;11.30;99.90;;;;;;4988451;28;20137;-34
2023/09/30 03:24:08;;;;;;;10.30;4.25;;;11.40;99.90;;;;;;4985650;28;20061;-34
2023/09/30 03:26:35;;;;;;;7.93;3.33;;;11.30;99.90;;;;;;4988472;28;20042;-35
2023/09/30 03:29:01;;;;;;;9.20;3.33;;;11.30;99.90;;;;;;4986190;28;20149;-35
2023/09/30 03:31:26;;;;;;;8.38;3.20;;;11.30;99.90;;;;;;4984211;28;20050;-34
2023/09/30 03:33:56;;;;;;;14.82;3.50;;;11.30;99.90;;;;;;4981551;28;20042;-35
2023/09/30 03:36:24;;;;;;;7.15;3.20;;;11.30;99.90;;;;;;4984174;28;20058;-34
2023/09/30 03:38:52;;;;;;;6.82;2.50;;;11.30;99.90;;;;;;4984250;28;20052;-35
2023/09/30 03:41:19;;;;;;;10.00;3.28;;;11.30;99.90;;;;;;4984068;28;20050;-35
2023/09/30 03:43:44;;;;;;;11.00;4.40;;;11.40;99.90;;;;;;4987712;28;20042;-35
2023/09/30 03:46:12;;;;;;;9.30;4.32;;;11.40;99.90;;;;;;4981470;28;20145;-35
2023/09/30 03:48:40;;;;;;;10.60;3.92;;;11.40;99.90;;;;;;4979041;28;20150;-36
2023/09/30 03:51:13;;;;;;;11.02;3.97;;;11.40;99.90;;;;;;4988712;28;20062;-35
2023/09/30 03:53:43;;;;;;;10.70;3.33;;;11.40;99.90;;;;;;4986107;28;20050;-34
2023/09/30 03:56:11;;;;;;;8.05;4.30;;;11.40;99.90;;;;;;4985094;28;20420;-34
2023/09/30 03:58:38;;;;;;;11.98;4.13;;;11.40;99.90;;;;;;4985707;28;20463;-34
2023/09/30 04:01:04;;;;;;;8.75;4.13;;;11.40;99.90;;;;;;4983720;28;20096;-34
2023/09/30 04:03:33;;;;;;;11.27;4.38;;;11.40;99.90;;;;;;4986101;28;20050;-34
2023/09/30 04:05:58;;;;;;;7.07;3.88;;;11.40;99.90;;;;;;4984637;28;20066;-34
2023/09/30 04:08:24;;;;;;;11.18;4.65;;;11.40;99.90;;;;;;4985602;28;20061;-34
2023/09/30 04:10:50;;;;;;;8.35;3.78;;;11.40;99.90;;;;;;4982801;28;20109;-39
2023/09/30 04:13:16;;;;;;;11.55;4.43;;;11.40;99.90;;;;;;4989441;28;20129;-35
2023/09/30 04:15:44;;;;;;;13.70;4.65;;;11.40;99.90;;;;;;4988535;28;20061;-35
2023/09/30 04:18:11;;;;;;;9.18;4.47;;;11.40;99.90;;;;;;4989741;28;20563;-35
2023/09/30 04:20:39;;;;;;;7.53;3.60;;;11.40;99.90;;;;;;4989556;28;20062;-35
2023/09/30 04:23:10;;;;;;;7.75;3.88;;;11.40;99.90;;;;;;4990995;28;20052;-35
2023/09/30 04:25:35;;;;;;;9.38;4.20;;;11.40;99.90;;;;;;4988955;28;20058;-35
2023/09/30 04:28:02;;;;;;;10.35;4.13;;;11.40;99.90;;;;;;4991815;28;20057;-35
2023/09/30 04:30:29;;;;;;;11.48;4.47;;;11.40;99.90;;;;;;4990343;28;20050;-35
2023/09/30 04:32:55;;;;;;;9.57;4.25;;;11.40;99.90;;;;;;4989099;28;20078;-35
2023/09/30 04:35:21;;;;;;;11.70;5.43;;;11.30;99.90;;;;;;4989567;28;20152;-35
2023/09/30 04:37:47;;;;;;;12.27;4.95;;;11.30;99.90;;;;;;4988367;28;20050;-35
2023/09/30 04:40:19;;;;;;;12.38;4.90;;;11.30;99.90;;;;;;4985728;28;20047;-35
2023/09/30 04:42:46;;;;;;;15.27;5.30;;;11.30;99.90;;;;;;4990357;28;20058;-35
2023/09/30 04:45:12;;;;;;;11.77;4.97;;;11.20;99.90;;;;;;4990459;28;20060;-35
2023/09/30 04:47:39;;;;;;;10.05;5.18;;;11.20;99.90;;;;;;4968757;28;20120;-35
2023/09/30 04:50:08;;;;;;;11.55;5.13;;;11.20;99.90;;;;;;4989935;28;20046;-35
2023/09/30 04:52:38;;;;;;;8.93;4.68;;;11.20;99.90;;;;;;4990753;28;20054;-35
2023/09/30 04:55:04;;;;;;;8.95;4.03;;;11.20;99.90;;;;;;4975317;28;20053;-35
2023/09/30 04:57:31;;;;;;;10.45;5.03;;;11.20;99.90;;;;;;4992568;28;20073;-35
2023/09/30 04:59:57;;;;;;;10.75;4.82;;;11.20;99.90;;;;;;4988732;28;20046;-34
2023/09/30 05:02:27;;;;;;;11.20;4.18;;;11.20;99.90;;;;;;4989766;28;20050;-35
2023/09/30 05:04:53;;;;;;;10.82;3.88;;;11.20;99.90;;;;;;5002571;28;20132;-35
2023/09/30 05:07:22;;;;;;;11.50;5.30;;;11.20;99.90;;;;;;4987762;28;20043;-35
2023/09/30 05:09:48;;;;;;;11.68;4.97;;;11.20;99.90;;;;;;4987747;28;20089;-36
2023/09/30 05:12:16;;;;;;;14.73;6.15;;;11.20;99.90;;;;;;4989906;28;20053;-35
2023/09/30 05:14:42;;;;;;;13.00;5.70;;;11.20;99.90;;;;;;5006121;28;20041;-36
2023/09/30 05:17:08;;;;;;;9.32;4.35;;;11.20;99.90;;;;;;4987076;28;20082;-35
2023/09/30 05:19:34;;;;;;;12.80;5.00;;;11.10;99.90;;;;;;5005726;28;20147;-35
2023/09/30 05:22:01;;;;;;;10.20;5.03;;;11.20;99.90;;;;;;4987697;28;20049;-35
2023/09/30 05:24:27;;;;;;;11.75;4.75;;;11.10;99.90;;;;;;4984594;28;20050;-35
2023/09/30 05:26:53;;;;;;;13.20;5.40;;;11.10;99.90;;;;;;4987956;28;20052;-35
2023/09/30 05:29:20;;;;;;;14.75;5.47;;;11.10;99.90;;;;;;4987448;28;20054;-52
2023/09/30 05:31:46;;;;;;;11.20;4.97;;;11.10;99.90;;;;;;4981958;28;20050;-35
2023/09/30 05:34:11;;;;;;;14.52;5.10;;;11.10;99.90;;;;;;4985453;28;20053;-35
2023/09/30 05:36:38;;;;;;;10.48;4.60;;;11.10;99.90;;;;;;4988213;28;20133;-35
2023/09/30 05:39:04;;;;;;;11.95;5.35;;;11.10;99.90;;;;;;4984532;28;20408;-35
2023/09/30 05:41:31;;;;;;;11.02;5.05;;;11.10;99.90;;;;;;4985329;28;20054;-35
2023/09/30 05:43:58;;;;;;;9.27;5.45;;;11.10;99.90;;;;;;4988815;28;20101;-35
2023/09/30 05:46:24;;;;;;;11.15;4.70;;;11.10;99.90;;;;;;4993079;28;20121;-36
2023/09/30 05:48:50;;;;;;;9.00;4.90;;;11.10;99.90;;;;;;4987036;28;20050;-35
2023/09/30 05:51:16;;;;;;;12.13;5.15;;;11.20;99.90;;;;;;4989028;28;20073;-35
2023/09/30 05:53:42;;;;;;;13.48;5.50;;;11.20;99.90;;;;;;4987269;28;20483;-35
2023/09/30 05:56:10;;;;;;;8.43;4.68;;;11.20;99.90;;;;;;4987093;28;20069;-35
2023/09/30 05:58:37;;;;;;;14.30;5.85;;;11.30;99.90;;;;;;4993544;28;20492;-35
2023/09/30 06:01:10;;;;;;;10.70;4.63;;;11.30;99.90;;;;;;4984444;28;20085;-35
2023/09/30 06:03:39;;;;;;;9.90;4.60;;;11.20;99.90;;;;;;4989408;28;20787;-35
2023/09/30 06:06:15;;;;;;;14.63;5.70;;;11.30;99.90;;;;;;4986271;28;20508;-35
2023/09/30 06:08:47;;;;;;;12.02;6.28;;;11.20;99.90;;;;;;4985654;28;20056;-35
2023/09/30 06:11:24;;;;;;;13.03;5.67;;;11.20;99.90;;;;;;4989020;28;20500;-40
2023/09/30 06:13:52;;;;;;;14.68;5.75;;;11.20;99.90;;;;;;4986384;28;20500;-46
2023/09/30 06:16:18;;;;;;;11.10;5.47;;;11.20;99.90;;;;;;4988582;28;20137;-35
2023/09/30 06:18:48;;;;;;;12.27;6.90;;;11.20;99.90;;;;;;4990041;28;20060;-35
2023/09/30 06:21:16;;;;;;;11.98;5.75;;;11.30;99.90;;;;;;4984229;28;20054;-35
2023/09/30 06:23:43;;;;;;;12.68;5.47;;;11.30;99.90;;;;;;4984647;28;20123;-35
2023/09/30 06:26:09;;;;;;;12.25;6.38;;;11.30;99.90;;;;;;4979572;28;20053;-35
2023/09/30 06:28:40;;;;;;;11.20;6.38;;;11.30;99.90;;;;;;4985725;28;20515;-35
2023/09/30 06:31:07;;;;;;;14.88;6.30;;;11.40;99.90;;;;;;4996750;28;20113;-35
2023/09/30 06:33:35;;;;;;;11.02;5.50;;;11.50;99.90;;;;;;4988726;28;20099;-46
2023/09/30 06:36:02;;;;;;;14.80;6.93;;;11.50;99.90;;;;;;4985780;28;20062;-35
2023/09/30 06:38:27;;;;;;;15.00;6.85;;;11.60;99.90;;;;;;4985485;28;20146;-35
2023/09/30 06:40:53;;;;;;;13.88;6.13;;;11.60;99.90;;;;;;4982124;28;20144;-34
2023/09/30 06:43:19;;;;;;;12.25;6.72;;;11.70;99.90;;;;;;4988875;28;20488;-35
2023/09/30 06:45:46;;;;;;;13.60;6.57;;;11.70;99.90;;;;;;4984370;28;20081;-35
2023/09/30 06:48:13;;;;;;;15.65;6.63;;;11.70;99.90;;;;;;4979428;28;20539;-35
2023/09/30 06:50:48;;;;;;;12.82;5.88;;;11.80;99.90;;;;;;4984358;28;20049;-35
2023/09/30 06:53:18;;;;;;;14.40;6.25;;;11.80;99.90;;;;;;4979485;28;20069;-36
2023/09/30 06:55:44;;;;;;;13.80;6.32;;;11.90;99.90;;;;;;4989801;28;20515;-37
2023/09/30 06:58:11;;;;;;;14.27;6.78;;;11.90;99.90;;;;;;4986570;28;20050;-35
2023/09/30 07:00:42;;;;;;;13.32;6.30;;;11.90;99.90;;;;;;4983926;28;20073;-35
2023/09/30 07:03:09;;;;;;;15.30;7.55;;;12.00;99.90;;;;;;4981940;28;20058;-35
2023/09/30 07:05:36;;;;;;;15.60;7.80;;;12.00;99.90;;;;;;4981304;28;20050;-35
2023/09/30 07:08:02;;;;;;;13.90;7.25;;;12.10;99.90;;;;;;4962639;28;20060;-35
2023/09/30 07:10:31;;;;;;;13.90;7.25;;;12.10;99.90;;;;;;4976656;28;20050;-35
2023/09/30 07:12:57;;;;;;;13.15;6.47;;;12.20;99.90;;;;;;4977888;28;20046;-35
2023/09/30 07:15:23;;;;;;;15.55;7.57;;;12.20;99.90;;;;;;4988964;28;20078;-35
2023/09/30 07:17:48;;;;;;;17.25;7.20;;;12.20;99.90;;;;;;4987852;28;20049;-35
2023/09/30 07:20:14;;;;;;;15.93;7.05;;;12.30;99.90;;;;;;4976598;28;20050;-35
2023/09/30 07:22:41;;;;;;;13.38;6.75;;;12.30;99.90;;;;;;4984951;28;20128;-35
2023/09/30 07:25:08;;;;;;;14.18;7.50;;;12.30;99.90;;;;;;4983889;28;20788;-35
2023/09/30 07:27:34;;;;;;;15.30;7.03;;;12.40;99.90;;;;;;4981207;28;20492;-35
2023/09/30 07:29:59;;;;;;;14.65;6.63;;;12.40;99.90;;;;;;4984930;28;20061;-35
2023/09/30 07:32:25;;;;;;;15.57;7.35;;;12.40;99.90;;;;;;4996017;28;20052;-35
2023/09/30 07:34:51;;;;;;;16.02;8.18;;;12.50;99.90;;;;;;4984086;28;20046;-35
2023/09/30 07:37:18;;;;;;;16.40;7.47;;;12.50;99.90;;;;;;4986096;28;20093;-35
2023/09/30 07:39:44;;;;;;;16.45;7.45;;;12.60;99.90;;;;;;4986621;28;20066;-35
2023/09/30 07:42:10;;;;;;;13.50;7.47;;;12.60;99.90;;;;;;4986269;28;20424;-34
2023/09/30 07:44:37;;;;;;;14.25;8.00;;;12.70;99.90;;;;;;4985337;28;20054;-34
2023/09/30 07:47:03;;;;;;;16.33;7.82;;;12.70;99.90;;;;;;4984205;28;20047;-34
2023/09/30 07:49:29;;;;;;;15.75;8.00;;;12.80;99.90;;;;;;4986420;28;20058;-35
2023/09/30 07:51:55;;;;;;;15.68;7.95;;;12.90;99.90;;;;;;4986920;28;20455;-35
2023/09/30 07:54:21;;;;;;;16.13;9.35;;;12.90;99.90;;;;;;4985759;28;20051;-35
2023/09/30 07:56:47;;;;;;;16.38;8.35;;;12.90;99.90;;;;;;4987106;28;20101;-35
2023/09/30 07:59:13;;;;;;;13.93;8.10;;;13.00;99.90;;;;;;4985870;28;20054;-35
2023/09/30 08:01:39;;;;;;;13.50;7.63;;;13.10;99.90;;;;;;4988657;28;20081;-35
2023/09/30 08:04:05;;;;;;;15.93;8.35;;;13.10;99.90;;;;;;4986280;28;20468;-35
2023/09/30 08:06:31;;;;;;;13.65;8.02;;;13.20;99.90;;;;;;4979044;28;20060;-35
2023/09/30 08:08:56;;;;;;;18.50;8.98;;;13.20;99.90;;;;;;4984861;28;20137;-35
2023/09/30 08:11:23;;;;;;;17.90;8.65;;;13.30;99.90;;;;;;4983107;28;20058;-35
2023/09/30 08:13:48;;;;;;;13.27;8.23;;;13.40;99.90;;;;;;4980923;28;20060;-35
2023/09/30 08:16:14;;;;;;;16.00;9.30;;;13.50;99.90;;;;;;4985629;28;20408;-35
2023/09/30 08:18:40;;;;;;;17.95;9.20;;;13.60;99.90;;;;;;4987099;28;20498;-35
2023/09/30 08:21:10;;;;;;;18.00;8.90;;;13.70;99.90;;;;;;4984895;28;20073;-34
2023/09/30 08:23:35;;;;;;;17.55;9.05;;;13.80;99.90;;;;;;4985916;28;20412;-35
2023/09/30 08:26:01;;;;;;;18.83;10.13;;;13.80;99.90;;;;;;4985534;28;20057;-34
2023/09/30 08:28:27;;;;;;;17.88;8.70;;;14.00;99.90;;;;;;5001421;28;21044;-35
2023/09/30 08:30:58;;;;;;;15.18;8.57;;;14.10;99.90;;;;;;4988352;28;20050;-34
2023/09/30 08:33:25;;;;;;;11.90;7.35;;;14.10;99.90;;;;;;4985993;28;20145;-34
2023/09/30 08:35:51;;;;;;;15.13;8.15;;;14.30;99.90;;;;;;4981237;28;20077;-34
2023/09/30 08:38:17;;;;;;;18.40;9.65;;;14.40;99.90;;;;;;4984647;28;20058;-34
2023/09/30 08:40:45;;;;;;;16.15;9.02;;;14.50;99.90;;;;;;4984713;28;20117;-34
2023/09/30 08:43:12;;;;;;;13.70;7.53;;;14.50;99.90;;;;;;4987016;28;20568;-35
2023/09/30 08:45:43;;;;;;;15.75;7.07;;;14.70;99.90;;;;;;4989909;28;20085;-35
2023/09/30 08:48:09;;;;;;;16.55;7.25;;;14.80;99.90;;;;;;4984095;28;20042;-35
2023/09/30 08:50:38;;;;;;;15.10;7.05;;;14.80;99.90;;;;;;4985402;28;20058;-34
2023/09/30 08:53:05;;;;;;;17.20;6.97;;;14.90;99.90;;;;;;4988939;28;20112;-34
2023/09/30 08:55:34;;;;;;;11.57;6.47;;;14.90;99.90;;;;;;4983280;28;20393;-34
2023/09/30 08:58:00;;;;;;;14.73;7.55;;;15.10;99.90;;;;;;4984861;28;20050;-34
2023/09/30 09:00:26;;;;;;;16.85;8.27;;;15.10;99.90;;;;;;4985946;28;20138;-34
2023/09/30 09:02:52;;;;;;;13.68;7.32;;;15.20;99.90;;;;;;4989337;28;20121;-34
2023/09/30 09:05:18;;;;;;;9.75;6.78;;;15.30;99.90;;;;;;4987375;28;20109;-45
2023/09/30 09:07:43;;;;;;;15.82;7.50;;;15.40;99.90;;;;;;4987320;28;20097;-34
2023/09/30 09:10:13;;;;;;;13.10;6.32;;;15.50;99.90;;;;;;4987313;28;20054;-34
2023/09/30 09:12:40;;;;;;;11.63;6.57;;;15.60;99.90;;;;;;4969470;28;20046;-34
2023/09/30 09:15:08;;;;;;;16.88;6.13;;;15.70;99.90;;;;;;4978921;28;20073;-34
2023/09/30 09:17:44;;;;;;;11.48;6.47;;;15.80;99.90;;;;;;4981983;28;20137;-35
2023/09/30 09:20:21;;;;;;;13.50;6.20;;;15.90;99.90;;;;;;4981859;28;20489;-35
2023/09/30 09:22:53;;;;;;;14.38;5.85;;;16.00;99.90;;;;;;4989260;28;20073;-35
2023/09/30 09:25:22;;;;;;;13.73;6.00;;;16.10;99.90;;;;;;5004831;28;20065;-35
2023/09/30 09:27:49;;;;;;;10.55;5.35;;;16.20;99.90;;;;;;4985237;28;20054;-35
2023/09/30 09:30:25;;;;;;;11.80;5.57;;;16.30;99.90;;;;;;4984348;28;20058;-34
2023/09/30 09:33:04;;;;;;;12.68;6.20;;;16.40;99.90;;;;;;4989306;28;20278;-35
2023/09/30 09:35:32;;;;;;;14.35;6.43;;;16.50;99.90;;;;;;4988371;28;20066;-34
2023/09/30 09:38:03;;;;;;;11.15;5.57;;;16.60;99.90;;;;;;4986414;28;20075;-34
2023/09/30 09:40:33;;;;;;;11.90;6.20;;;16.70;99.90;;;;;;4985058;28;20073;-34
2023/09/30 09:43:02;;;;;;;11.48;6.22;;;16.70;99.90;;;;;;4979333;28;20042;-35
2023/09/30 09:45:28;;;;;;;11.13;5.47;;;16.80;99.90;;;;;;4983377;28;20493;-35
2023/09/30 09:47:54;;;;;;;14.05;6.65;;;16.90;99.90;;;;;;4961482;28;20058;-35
2023/09/30 09:50:24;;;;;;;8.85;4.07;;;16.90;99.90;;;;;;4985419;28;20050;-35
2023/09/30 09:52:55;;;;;;;13.95;5.18;;;17.10;99.90;;;;;;4974084;28;20508;-34
2023/09/30 09:55:22;;;;;;;10.30;5.57;;;17.10;99.90;;;;;;4983340;28;20046;-34
2023/09/30 09:57:49;;;;;;;11.02;4.75;;;17.20;99.90;;;;;;4968022;28;20469;-35
2023/09/30 10:00:25;;;;;;;10.10;4.78;;;17.30;99.90;;;;;;4983285;28;20148;-34
2023/09/30 10:02:52;;;;;;;11.48;4.57;;;17.40;99.90;;;;;;4981128;28;20058;-34
2023/09/30 10:05:19;;;;;;;8.57;4.60;;;17.50;99.90;;;;;;4984210;28;20117;-34
2023/09/30 10:07:47;;;;;;;9.10;4.30;;;17.60;99.90;;;;;;4985642;28;20104;-34
2023/09/30 10:10:16;;;;;;;8.27;4.25;;;17.70;99.90;;;;;;4982617;28;20054;-34
2023/09/30 10:12:42;;;;;;;7.57;4.25;;;17.80;99.90;;;;;;4982320;28;20140;-35
2023/09/30 10:15:26;;;;;;;7.32;3.15;;;17.80;99.90;;;;;;4984759;28;20049;-36
2023/09/30 10:18:02;;;;;;;6.38;2.42;;;17.90;99.90;;;;;;4982488;28;20391;-36
2023/09/30 10:20:30;;;;;;;6.32;2.45;;;18.00;99.90;;;;;;4986390;28;20069;-37
2023/09/30 10:23:17;;;;;;;6.18;2.45;;;18.00;99.90;;;;;;4981705;28;20189;-35
2023/09/30 10:25:47;;;;;;;7.03;2.90;;;18.20;99.90;;;;;;4996964;28;20050;-35
2023/09/30 10:28:49;;;;;;;10.07;2.95;;;18.20;99.90;;;;;;4990345;28;20050;-35
2023/09/30 10:31:17;;;;;;;7.88;2.45;;;18.20;99.90;;;;;;4987336;28;20522;-34
2023/09/30 10:33:59;;;;;;;4.40;1.70;;;18.20;99.90;;;;;;4977831;28;20058;-35
2023/09/30 10:36:38;;;;;;;4.13;1.50;;;18.30;99.90;;;;;;4985773;28;20054;-34
2023/09/30 10:39:04;;;;;;;7.30;1.02;;;18.30;99.90;;;;;;4987486;28;20489;-35
2023/09/30 10:41:39;;;;;;;4.15;0.77;;;18.40;99.90;;;;;;4991153;28;20057;-35
2023/09/30 10:44:38;;;;;;;4.47;0.75;;;18.50;99.90;;;;;;4989365;28;20441;-35
2023/09/30 10:47:24;;;;;;;4.80;0.60;;;18.50;99.90;;;;;;4981086;28;20066;-35
2023/09/30 10:49:50;;;;;;;6.50;1.27;;;18.60;99.90;;;;;;4988132;28;20097;-34
2023/09/30 10:52:25;;;;;;;8.00;0.90;;;18.60;99.90;;;;;;4989946;28;20050;-35
2023/09/30 10:54:51;;;;;;;6.05;0.65;;;18.70;99.90;;;;;;5004577;28;20066;-35
2023/09/30 10:57:29;;;;;;;6.68;0.80;;;18.70;99.90;;;;;;4989949;28;20046;-36
2023/09/30 11:00:16;;;;;;;5.88;0.60;;;18.60;99.90;;;;;;4987520;28;20137;-36
2023/09/30 11:02:52;;;;;;;5.10;0.70;;;18.60;99.90;;;;;;4988203;28;20050;-35
2023/09/30 11:05:20;;;;;;;4.18;0.57;;;18.50;99.90;;;;;;4984919;28;20058;-35
2023/09/30 11:07:48;;;;;;;2.65;0.70;;;18.50;99.90;;;;;;4988762;28;20168;-35
2023/09/30 11:10:20;;;;;;;6.05;0.85;;;18.40;99.90;;;;;;4987965;28;20136;-35
2023/09/30 11:12:57;;;;;;;2.58;0.60;;;18.50;99.90;;;;;;4983847;28;20057;-35
2023/09/30 11:15:23;;;;;;;2.90;0.50;;;18.60;99.90;;;;;;4987801;28;20050;-40
2023/09/30 11:17:49;;;;;;;4.80;0.50;;;18.60;99.90;;;;;;4988597;28;20053;-34
2023/09/30 11:20:18;;;;;;;7.95;0.98;;;18.70;99.90;;;;;;5004815;28;20069;-36
2023/09/30 11:22:45;;;;;;;5.40;0.60;;;18.80;99.90;;;;;;4969878;28;20433;-34
2023/09/30 11:25:19;;;;;;;6.00;0.52;;;19.00;99.90;;;;;;4984000;28;20496;-35
2023/09/30 11:27:46;;;;;;;4.03;0.77;;;19.30;99.90;;;;;;5002331;28;20116;-37
2023/09/30 11:30:13;;;;;;;4.93;0.85;;;19.50;99.90;;;;;;4991259;28;20496;-36
2023/09/30 11:32:39;;;;;;;4.03;0.80;;;19.60;99.90;;;;;;4988461;28;20042;-35
2023/09/30 11:35:10;;;;;;;2.88;0.70;;;19.70;99.90;;;;;;4988320;28;20065;-36
2023/09/30 11:37:36;;;;;;;6.70;1.10;;;19.80;99.90;;;;;;4976156;28;20046;-34
2023/09/30 11:40:15;;;;;;;4.05;0.93;;;19.90;99.90;;;;;;4975269;28;20416;-36
2023/09/30 11:42:41;;;;;;;8.05;1.00;;;20.00;99.90;;;;;;4988222;28;20193;-35
2023/09/30 11:45:27;;;;;;;4.28;0.75;;;20.00;99.90;;;;;;4982074;28;20054;-35
2023/09/30 11:47:53;;;;;;;6.88;1.10;;;20.00;99.90;;;;;;4986607;28;20487;-35
2023/09/30 11:50:19;;;;;;;4.10;0.82;;;19.90;99.90;;;;;;4988893;28;20061;-36
2023/09/30 11:52:46;;;;;;;3.00;0.63;;;19.80;99.90;;;;;;4986719;28;20102;-36
2023/09/30 11:55:12;;;;;;;5.32;0.73;;;19.70;99.90;;;;;;4980587;28;20058;-35
2023/09/30 11:57:38;;;;;;;6.45;0.80;;;19.50;99.90;;;;;;4986842;28;20053;-35
2023/09/30 12:00:13;;;;;;;4.30;0.90;;;19.40;99.90;;;;;;4990324;28;20048;-35
2023/09/30 12:02:40;;;;;;;4.60;0.80;;;19.20;99.90;;;;;;4983644;28;20507;-36
2023/09/30 12:05:11;;;;;;;4.68;1.02;;;19.20;99.90;;;;;;4989012;28;20065;-35
2023/09/30 12:07:43;;;;;;;4.05;0.63;;;19.10;99.90;;;;;;4985320;28;20113;-35
2023/09/30 12:10:09;;;;;;;7.50;1.23;;;19.00;99.90;;;;;;4986718;28;20061;-35
2023/09/30 12:12:34;;;;;;;5.30;0.70;;;19.20;99.90;;;;;;4987288;28;20416;-35
2023/09/30 12:15:00;;;;;;;3.03;0.60;;;19.50;99.90;;;;;;4986329;28;20081;-34
2023/09/30 12:17:26;;;;;;;6.82;0.93;;;19.80;99.90;;;;;;4989877;28;20053;-35
2023/09/30 12:19:52;;;;;;;3.05;0.70;;;20.10;99.90;;;;;;4985748;28;20483;-34
2023/09/30 12:22:18;;;;;;;4.10;0.90;;;19.90;99.90;;;;;;4986472;28;20146;-35
2023/09/30 12:24:44;;;;;;;2.97;0.70;;;19.80;99.90;;;;;;4987502;28;20420;-35
2023/09/30 12:27:09;;;;;;;4.70;1.13;;;19.50;99.90;;;;;;4983574;28;20063;-36
2023/09/30 12:29:38;;;;;;;3.55;0.73;;;19.30;99.90;;;;;;4980162;28;20434;-35
2023/09/30 12:32:05;;;;;;;6.50;1.05;;;19.30;99.90;;;;;;4986599;28;20185;-36
2023/09/30 12:34:32;;;;;;;5.05;0.82;;;19.40;99.90;;;;;;4991512;28;20563;-36
2023/09/30 12:36:59;;;;;;;3.10;0.75;;;19.70;99.90;;;;;;4987477;28;20141;-38
2023/09/30 12:39:25;;;;;;;3.97;0.82;;;19.90;99.90;;;;;;4988105;28;20494;-36
2023/09/30 12:41:51;;;;;;;5.35;1.15;;;20.00;99.90;;;;;;4988676;28;20094;-35
2023/09/30 12:44:17;;;;;;;3.72;1.08;;;20.20;99.90;;;;;;4986813;28;20126;-35
2023/09/30 12:46:43;;;;;;;3.75;0.63;;;20.40;99.90;;;;;;4985043;28;20397;-35